Time,TemperatureF,DewpointF,PressureIn,WindDirection,WindDirectionDegrees,WindSpeedMPH,WindSpeedGustMPH,Humidity,HourlyPrecipIn,Conditions,Clouds,dailyrainin,SoftwareType,DateUTC
2013-02-13 00:00:00,33.9,32.6,29.92,East,97,8.0,8.0,95,0.00,,---,0.12,VWS V14.01,2013-02-13 05:00:00,
2013-02-13 00:05:00,33.7,32.7,29.90,SE,126,7.0,7.0,96,0.00,,---,0.00,VWS V14.01,2013-02-13 05:05:00,
2013-02-13 00:10:00,33.5,32.5,29.89,ESE,118,6.0,8.0,96,0.00,,---,0.00,VWS V14.01,2013-02-13 05:10:00,
2013-02-13 00:15:00,33.4,32.4,29.89,SE,140,8.0,9.0,96,0.00,,---,0.00,VWS V14.01,2013-02-13 05:15:00,
2013-02-13 00:20:00,33.4,32.6,29.91,SE,127,9.0,9.0,97,0.00,,---,0.00,VWS V14.01,2013-02-13 05:20:00,
2013-02-13 00:25:00,33.3,32.5,29.90,ESE,112,2.0,7.0,97,0.00,,---,0.00,VWS V14.01,2013-02-13 05:25:00,
2013-02-13 00:30:00,33.3,32.5,29.92,SSE,151,3.0,4.0,97,0.00,,---,0.00,VWS V14.01,2013-02-13 05:30:00,
2013-02-13 00:35:00,33.4,32.9,29.92,SSE,150,0.0,1.0,98,0.00,,---,0.00,VWS V14.01,2013-02-13 05:35:00,
2013-02-13 00:40:00,33.5,33.0,29.90,SSE,150,3.0,3.0,98,0.00,,---,0.00,VWS V14.01,2013-02-13 05:40:00,
2013-02-13 00:45:00,33.4,32.9,29.88,ESE,121,7.0,9.0,98,0.00,,---,0.00,VWS V14.01,2013-02-13 05:45:00,
2013-02-13 00:50:00,33.3,32.8,29.88,ESE,118,5.0,8.0,98,0.00,,---,0.00,VWS V14.01,2013-02-13 05:50:00,
2013-02-13 00:55:00,33.3,32.8,29.87,ESE,117,8.0,10.0,98,0.01,,---,0.01,VWS V14.01,2013-02-13 05:55:00,
2013-02-13 01:00:00,33.4,32.9,29.87,ESE,106,5.0,7.0,98,0.01,,---,0.01,VWS V14.01,2013-02-13 06:00:00,
2013-02-13 01:05:00,33.2,32.7,29.87,East,101,4.0,9.0,98,0.01,,---,0.01,VWS V14.01,2013-02-13 06:05:00,
2013-02-13 01:10:00,33.4,32.9,29.86,ESE,117,6.0,8.0,98,0.01,,---,0.01,VWS V14.01,2013-02-13 06:10:00,
2013-02-13 01:15:00,33.4,32.9,29.86,ESE,118,6.0,6.0,98,0.01,,---,0.01,VWS V14.01,2013-02-13 06:15:00,
2013-02-13 01:20:00,33.3,32.8,29.86,ESE,117,6.0,9.0,98,0.01,,---,0.01,VWS V14.01,2013-02-13 06:20:00,
2013-02-13 01:25:00,33.2,32.7,29.86,SE,143,8.0,11.0,98,0.01,,---,0.01,VWS V14.01,2013-02-13 06:25:00,
2013-02-13 01:30:00,33.2,32.7,29.86,ESE,104,5.0,9.0,98,0.01,,---,0.01,VWS V14.01,2013-02-13 06:30:00,
2013-02-13 01:35:00,33.2,32.7,29.86,SE,125,9.0,14.0,98,0.01,,---,0.01,VWS V14.01,2013-02-13 06:35:00,
2013-02-13 01:40:00,33.0,32.5,29.86,SE,130,8.0,9.0,98,0.01,,---,0.01,VWS V14.01,2013-02-13 06:40:00,
2013-02-13 01:45:00,33.0,32.5,29.86,East,101,5.0,9.0,98,0.01,,---,0.01,VWS V14.01,2013-02-13 06:45:00,
2013-02-13 01:50:00,32.9,32.4,29.85,East,94,12.0,12.0,98,0.01,,---,0.01,VWS V14.01,2013-02-13 06:50:00,
2013-02-13 01:55:00,32.9,32.4,29.85,East,91,3.0,8.0,98,0.01,,---,0.01,VWS V14.01,2013-02-13 06:55:00,
2013-02-13 02:00:00,32.8,32.3,29.85,East,99,4.0,5.0,98,0.00,,---,0.01,VWS V14.01,2013-02-13 07:00:00,
2013-02-13 02:05:00,33.0,32.5,29.85,ESE,122,8.0,11.0,98,0.01,,---,0.02,VWS V14.01,2013-02-13 07:05:00,
2013-02-13 02:10:00,32.9,32.4,29.84,ESE,114,9.0,10.0,98,0.01,,---,0.02,VWS V14.01,2013-02-13 07:10:00,
2013-02-13 02:15:00,32.9,32.7,29.85,ESE,105,8.0,9.0,99,0.01,,---,0.02,VWS V14.01,2013-02-13 07:15:00,
2013-02-13 02:20:00,32.9,32.7,29.85,ESE,106,5.0,8.0,99,0.01,,---,0.02,VWS V14.01,2013-02-13 07:20:00,
2013-02-13 02:25:00,32.9,32.7,29.84,SE,124,7.0,10.0,99,0.01,,---,0.02,VWS V14.01,2013-02-13 07:25:00,
2013-02-13 02:30:00,32.9,32.7,29.85,East,94,7.0,10.0,99,0.01,,---,0.02,VWS V14.01,2013-02-13 07:30:00,
2013-02-13 02:35:00,32.8,32.5,29.84,SE,127,10.0,12.0,99,0.01,,---,0.02,VWS V14.01,2013-02-13 07:35:00,
2013-02-13 02:40:00,32.8,32.5,29.84,East,89,10.0,16.0,99,0.01,,---,0.02,VWS V14.01,2013-02-13 07:40:00,
2013-02-13 02:45:00,32.8,32.5,29.83,East,88,8.0,15.0,99,0.01,,---,0.02,VWS V14.01,2013-02-13 07:45:00,
2013-02-13 02:50:00,32.9,32.7,29.83,ENE,61,13.0,15.0,99,0.01,,---,0.02,VWS V14.01,2013-02-13 07:50:00,
2013-02-13 02:55:00,33.0,32.8,29.83,East,85,11.0,14.0,99,0.01,,---,0.02,VWS V14.01,2013-02-13 07:55:00,
2013-02-13 03:00:00,33.1,32.8,29.83,East,91,12.0,13.0,99,0.01,,---,0.02,VWS V14.01,2013-02-13 08:00:00,
2013-02-13 03:05:00,33.2,33.0,29.83,ESE,112,17.0,17.0,99,0.00,,---,0.02,VWS V14.01,2013-02-13 08:05:00,
2013-02-13 03:10:00,33.2,33.0,29.82,East,85,8.0,15.0,99,0.00,,---,0.02,VWS V14.01,2013-02-13 08:10:00,
2013-02-13 03:15:00,33.2,33.0,29.82,SE,140,10.0,17.0,99,0.00,,---,0.02,VWS V14.01,2013-02-13 08:15:00,
2013-02-13 03:19:00,33.0,32.8,29.82,ESE,106,12.0,13.0,99,0.00,,---,0.02,VWS V14.01,2013-02-13 08:19:00,
2013-02-13 03:24:00,33.1,32.8,29.82,SSE,148,14.0,17.0,99,0.00,,---,0.02,VWS V14.01,2013-02-13 08:24:00,
2013-02-13 03:29:00,33.1,32.8,29.82,East,91,13.0,16.0,99,0.00,,---,0.02,VWS V14.01,2013-02-13 08:29:00,
2013-02-13 03:35:00,33.0,32.8,29.81,East,89,9.0,16.0,99,0.00,,---,0.02,VWS V14.01,2013-02-13 08:35:00,
2013-02-13 03:40:00,33.0,32.8,29.81,ESE,108,8.0,11.0,99,0.01,,---,0.03,VWS V14.01,2013-02-13 08:40:00,
2013-02-13 03:45:00,33.0,32.8,29.81,East,89,11.0,15.0,99,0.01,,---,0.03,VWS V14.01,2013-02-13 08:45:00,
2013-02-13 03:50:00,32.9,32.7,29.81,East,99,11.0,17.0,99,0.01,,---,0.03,VWS V14.01,2013-02-13 08:50:00,
2013-02-13 03:54:00,32.8,32.5,29.81,East,99,9.0,13.0,99,0.01,,---,0.03,VWS V14.01,2013-02-13 08:54:00,
2013-02-13 04:00:00,32.7,32.5,29.81,East,97,9.0,16.0,99,0.01,,---,0.03,VWS V14.01,2013-02-13 09:00:00,
2013-02-13 04:05:00,32.7,32.5,29.80,East,79,10.0,12.0,99,0.01,,---,0.03,VWS V14.01,2013-02-13 09:05:00,
2013-02-13 04:10:00,32.8,32.5,29.80,East,93,8.0,18.0,99,0.01,,---,0.03,VWS V14.01,2013-02-13 09:10:00,
2013-02-13 04:15:00,32.7,32.5,29.80,East,91,9.0,16.0,99,0.01,,---,0.03,VWS V14.01,2013-02-13 09:15:00,
2013-02-13 04:20:00,32.7,32.5,29.80,ENE,78,13.0,16.0,99,0.01,,---,0.03,VWS V14.01,2013-02-13 09:20:00,
2013-02-13 04:24:00,32.7,32.5,29.79,ESE,108,11.0,15.0,99,0.01,,---,0.03,VWS V14.01,2013-02-13 09:24:00,
2013-02-13 04:29:00,32.7,32.5,29.79,East,95,13.0,18.0,99,0.01,,---,0.03,VWS V14.01,2013-02-13 09:29:00,
2013-02-13 04:34:00,32.8,32.5,29.80,ESE,117,15.0,17.0,99,0.01,,---,0.03,VWS V14.01,2013-02-13 09:34:00,
2013-02-13 04:39:00,32.7,32.5,29.80,East,90,11.0,18.0,99,0.00,,---,0.03,VWS V14.01,2013-02-13 09:39:00,
2013-02-13 04:44:00,32.8,32.5,29.80,East,99,13.0,14.0,99,0.00,,---,0.03,VWS V14.01,2013-02-13 09:44:00,
2013-02-13 04:49:00,32.8,32.8,29.80,ESE,104,13.0,16.0,100,0.00,,---,0.03,VWS V14.01,2013-02-13 09:49:00,
2013-02-13 04:54:00,32.8,32.8,29.80,ESE,107,11.0,14.0,100,0.00,,---,0.03,VWS V14.01,2013-02-13 09:54:00,
2013-02-13 04:59:00,32.7,32.7,29.80,East,91,12.0,15.0,100,0.00,,---,0.03,VWS V14.01,2013-02-13 09:59:00,
2013-02-13 05:04:00,32.8,32.8,29.79,ESE,113,9.0,10.0,100,0.00,,---,0.03,VWS V14.01,2013-02-13 10:04:00,
2013-02-13 05:09:00,32.7,32.7,29.79,East,89,8.0,13.0,100,0.00,,---,0.03,VWS V14.01,2013-02-13 10:09:00,
2013-02-13 05:14:00,32.7,32.7,29.78,East,87,12.0,12.0,100,0.00,,---,0.03,VWS V14.01,2013-02-13 10:14:00,
2013-02-13 05:20:00,32.8,32.8,29.79,East,96,9.0,11.0,100,0.00,,---,0.03,VWS V14.01,2013-02-13 10:20:00,
2013-02-13 05:25:00,32.8,32.8,29.79,East,88,8.0,11.0,100,0.00,,---,0.03,VWS V14.01,2013-02-13 10:25:00,
2013-02-13 05:30:00,32.9,32.9,29.78,East,93,7.0,11.0,100,0.00,,---,0.03,VWS V14.01,2013-02-13 10:30:00,
2013-02-13 05:35:00,33.0,33.0,29.78,ESE,119,14.0,14.0,100,0.00,,---,0.03,VWS V14.01,2013-02-13 10:35:00,
2013-02-13 05:40:00,33.2,33.2,29.79,East,83,7.0,13.0,100,0.00,,---,0.03,VWS V14.01,2013-02-13 10:40:00,
2013-02-13 05:45:00,33.2,33.2,29.79,East,94,13.0,13.0,100,0.00,,---,0.03,VWS V14.01,2013-02-13 10:45:00,
2013-02-13 05:50:00,33.1,33.1,29.77,ESE,108,10.0,11.0,100,0.00,,---,0.03,VWS V14.01,2013-02-13 10:50:00,
2013-02-13 05:55:00,33.1,33.1,29.77,East,99,11.0,11.0,100,0.00,,---,0.03,VWS V14.01,2013-02-13 10:55:00,
2013-02-13 06:00:00,33.2,33.2,29.77,ESE,104,9.0,14.0,100,0.00,,---,0.03,VWS V14.01,2013-02-13 11:00:00,
2013-02-13 06:05:00,33.1,33.1,29.76,ESE,103,12.0,14.0,100,0.00,,---,0.03,VWS V14.01,2013-02-13 11:05:00,
2013-02-13 06:10:00,33.2,33.2,29.76,ESE,110,9.0,11.0,100,0.00,,---,0.03,VWS V14.01,2013-02-13 11:10:00,
2013-02-13 06:15:00,32.9,32.9,29.78,East,100,7.0,11.0,100,0.00,,---,0.03,VWS V14.01,2013-02-13 11:15:00,
2013-02-13 06:20:00,33.0,33.0,29.77,East,97,9.0,11.0,100,0.00,,---,0.03,VWS V14.01,2013-02-13 11:20:00,
2013-02-13 06:25:00,33.2,33.2,29.76,ESE,118,10.0,11.0,100,0.00,,---,0.03,VWS V14.01,2013-02-13 11:25:00,
2013-02-13 06:30:00,33.5,33.5,29.76,East,96,7.0,11.0,100,0.00,,---,0.03,VWS V14.01,2013-02-13 11:30:00,
2013-02-13 06:35:00,33.7,33.7,29.76,East,95,10.0,11.0,100,0.00,,---,0.03,VWS V14.01,2013-02-13 11:35:00,
2013-02-13 06:40:00,33.9,33.9,29.76,ESE,118,9.0,10.0,100,0.00,,---,0.03,VWS V14.01,2013-02-13 11:40:00,
2013-02-13 06:45:00,34.1,34.1,29.78,ESE,114,8.0,11.0,100,0.00,,---,0.03,VWS V14.01,2013-02-13 11:45:00,
2013-02-13 06:50:00,34.1,34.1,29.77,ESE,120,11.0,11.0,100,0.00,,---,0.03,VWS V14.01,2013-02-13 11:50:00,
2013-02-13 06:55:00,34.1,34.1,29.77,ESE,111,10.0,11.0,100,0.00,,---,0.03,VWS V14.01,2013-02-13 11:55:00,
2013-02-13 07:00:00,33.8,33.8,29.77,East,89,10.0,13.0,100,0.00,,---,0.03,VWS V14.01,2013-02-13 12:00:00,
2013-02-13 07:05:00,34.1,34.1,29.77,ESE,108,8.0,10.0,100,0.00,,---,0.03,VWS V14.01,2013-02-13 12:05:00,
2013-02-13 07:10:00,34.2,34.2,29.79,ESE,117,9.0,10.0,100,0.00,,---,0.03,VWS V14.01,2013-02-13 12:10:00,
2013-02-13 07:15:00,34.3,34.3,29.78,ESE,106,9.0,10.0,100,0.00,,---,0.03,VWS V14.01,2013-02-13 12:15:00,
2013-02-13 07:20:00,34.3,34.3,29.78,East,98,8.0,11.0,100,0.00,,---,0.03,VWS V14.01,2013-02-13 12:20:00,
2013-02-13 07:25:00,34.2,34.2,29.77,ESE,103,11.0,13.0,100,0.00,,---,0.03,VWS V14.01,2013-02-13 12:25:00,
2013-02-13 07:30:00,34.1,34.1,29.78,ESE,118,9.0,10.0,100,0.00,,---,0.03,VWS V14.01,2013-02-13 12:30:00,
2013-02-13 07:35:00,34.3,34.3,29.78,East,101,5.0,9.0,100,0.00,,---,0.03,VWS V14.01,2013-02-13 12:35:00,
2013-02-13 07:40:00,34.4,34.4,29.79,ESE,114,8.0,8.0,100,0.00,,---,0.03,VWS V14.01,2013-02-13 12:40:00,
2013-02-13 07:45:00,34.4,34.4,29.79,ESE,103,9.0,11.0,100,0.00,,---,0.03,VWS V14.01,2013-02-13 12:45:00,
2013-02-13 07:50:00,34.4,34.4,29.77,ESE,105,10.0,13.0,100,0.00,,---,0.03,VWS V14.01,2013-02-13 12:50:00,
2013-02-13 07:55:00,34.5,34.5,29.75,ESE,117,11.0,11.0,100,0.00,,---,0.03,VWS V14.01,2013-02-13 12:55:00,
2013-02-13 08:00:00,34.6,34.6,29.78,ESE,112,9.0,9.0,100,0.00,,---,0.03,VWS V14.01,2013-02-13 13:00:00,
2013-02-13 08:05:00,34.7,34.7,29.77,ESE,116,10.0,10.0,100,0.00,,---,0.03,VWS V14.01,2013-02-13 13:05:00,
2013-02-13 08:10:00,34.8,34.8,29.77,ESE,108,10.0,11.0,100,0.00,,---,0.03,VWS V14.01,2013-02-13 13:10:00,
2013-02-13 08:15:00,35.0,35.0,29.77,East,101,11.0,13.0,100,0.00,,---,0.03,VWS V14.01,2013-02-13 13:15:00,
2013-02-13 08:20:00,34.9,34.9,29.77,East,83,11.0,12.0,100,0.00,,---,0.03,VWS V14.01,2013-02-13 13:20:00,
2013-02-13 08:25:00,35.1,35.1,29.76,ESE,110,11.0,11.0,100,0.00,,---,0.03,VWS V14.01,2013-02-13 13:25:00,
2013-02-13 08:30:00,35.3,35.3,29.77,ESE,113,8.0,11.0,100,0.00,,---,0.03,VWS V14.01,2013-02-13 13:30:00,
2013-02-13 08:35:00,35.5,35.5,29.78,ESE,110,8.0,9.0,100,0.00,,---,0.03,VWS V14.01,2013-02-13 13:35:00,
2013-02-13 08:40:00,35.7,35.7,29.78,ESE,108,8.0,10.0,100,0.00,,---,0.03,VWS V14.01,2013-02-13 13:40:00,
2013-02-13 08:45:00,35.6,35.6,29.78,ESE,119,8.0,9.0,100,0.00,,---,0.03,VWS V14.01,2013-02-13 13:45:00,
2013-02-13 08:50:00,35.5,35.5,29.78,ESE,108,10.0,11.0,100,0.00,,---,0.03,VWS V14.01,2013-02-13 13:50:00,
2013-02-13 08:54:00,35.7,35.7,29.77,ESE,118,13.0,14.0,100,0.00,,---,0.03,VWS V14.01,2013-02-13 13:54:00,
2013-02-13 08:59:00,35.8,35.8,29.77,ESE,113,7.0,10.0,100,0.00,,---,0.03,VWS V14.01,2013-02-13 13:59:00,
2013-02-13 09:04:00,35.9,35.9,29.77,ESE,108,8.0,9.0,100,0.00,,---,0.03,VWS V14.01,2013-02-13 14:04:00,
2013-02-13 09:09:00,35.9,35.9,29.77,ESE,115,10.0,11.0,100,0.00,,---,0.03,VWS V14.01,2013-02-13 14:09:00,
2013-02-13 09:14:00,36.1,36.1,29.78,ESE,112,9.0,10.0,100,0.00,,---,0.03,VWS V14.01,2013-02-13 14:14:00,
2013-02-13 09:19:00,36.0,36.0,29.77,East,90,10.0,10.0,100,0.00,,---,0.03,VWS V14.01,2013-02-13 14:19:00,
2013-02-13 09:24:00,36.0,36.0,29.78,SE,128,8.0,11.0,100,0.00,,---,0.03,VWS V14.01,2013-02-13 14:24:00,
2013-02-13 09:29:00,36.0,36.0,29.78,ENE,70,6.0,7.0,100,0.00,,---,0.03,VWS V14.01,2013-02-13 14:29:00,
2013-02-13 09:34:00,36.2,36.2,29.78,SE,128,5.0,7.0,100,0.00,,---,0.03,VWS V14.01,2013-02-13 14:34:00,
2013-02-13 09:39:00,36.4,36.4,29.75,ESE,116,7.0,8.0,100,0.00,,---,0.03,VWS V14.01,2013-02-13 14:39:00,
2013-02-13 09:44:00,36.6,36.6,29.76,SE,128,6.0,7.0,100,0.00,,---,0.03,VWS V14.01,2013-02-13 14:44:00,
2013-02-13 09:49:00,36.8,36.8,29.76,NE,42,1.0,3.0,100,0.00,,---,0.03,VWS V14.01,2013-02-13 14:49:00,
2013-02-13 09:54:00,36.9,36.9,29.77,East,90,4.0,7.0,100,0.00,,---,0.03,VWS V14.01,2013-02-13 14:54:00,
2013-02-13 09:59:00,36.7,36.7,29.76,SSE,149,5.0,5.0,100,0.00,,---,0.03,VWS V14.01,2013-02-13 14:59:00,
2013-02-13 10:04:00,36.7,36.7,29.75,East,95,7.0,9.0,100,0.00,,---,0.03,VWS V14.01,2013-02-13 15:04:00,
2013-02-13 10:09:00,36.7,36.7,29.75,ESE,119,5.0,9.0,100,0.00,,---,0.03,VWS V14.01,2013-02-13 15:09:00,
2013-02-13 10:14:00,36.8,36.8,29.73,East,93,4.0,7.0,100,0.00,,---,0.03,VWS V14.01,2013-02-13 15:14:00,
2013-02-13 10:19:00,36.8,36.8,29.75,SE,124,5.0,5.0,100,0.00,,---,0.03,VWS V14.01,2013-02-13 15:19:00,
2013-02-13 10:24:00,36.9,36.9,29.76,SE,145,3.0,4.0,100,0.00,,---,0.03,VWS V14.01,2013-02-13 15:24:00,
2013-02-13 10:29:00,36.7,36.7,29.76,SE,137,4.0,4.0,100,0.00,,---,0.03,VWS V14.01,2013-02-13 15:29:00,
2013-02-13 10:34:00,36.9,36.9,29.75,ESE,121,3.0,5.0,100,0.00,,---,0.03,VWS V14.01,2013-02-13 15:34:00,
2013-02-13 10:39:00,36.7,36.7,29.76,SE,139,2.0,3.0,100,0.00,,---,0.03,VWS V14.01,2013-02-13 15:39:00,
2013-02-13 10:44:00,36.8,36.8,29.76,ESE,116,5.0,5.0,100,0.00,,---,0.03,VWS V14.01,2013-02-13 15:44:00,
2013-02-13 10:49:00,36.5,36.5,29.76,SE,135,3.0,5.0,100,0.00,,---,0.03,VWS V14.01,2013-02-13 15:49:00,
2013-02-13 10:54:00,36.5,36.5,29.76,SSE,156,3.0,3.0,100,0.00,,---,0.03,VWS V14.01,2013-02-13 15:54:00,
2013-02-13 10:59:00,37.0,37.0,29.75,ESE,120,5.0,5.0,100,0.00,,---,0.03,VWS V14.01,2013-02-13 15:59:00,
2013-02-13 11:04:00,37.0,37.0,29.75,SE,140,2.0,2.0,100,0.00,,---,0.03,VWS V14.01,2013-02-13 16:04:00,
2013-02-13 11:09:00,36.8,36.8,29.75,SE,143,0.0,2.0,100,0.00,,---,0.03,VWS V14.01,2013-02-13 16:09:00,
2013-02-13 11:14:00,37.0,37.0,29.75,South,186,3.0,3.0,100,0.00,,---,0.03,VWS V14.01,2013-02-13 16:14:00,
2013-02-13 11:19:00,37.1,37.1,29.75,South,185,1.0,1.0,100,0.00,,---,0.03,VWS V14.01,2013-02-13 16:19:00,
2013-02-13 11:24:00,37.7,37.7,29.75,WSW,257,6.0,6.0,100,0.00,,---,0.03,VWS V14.01,2013-02-13 16:24:00,
2013-02-13 11:29:00,38.4,38.4,29.76,WSW,249,1.0,1.0,100,0.00,,---,0.03,VWS V14.01,2013-02-13 16:29:00,
2013-02-13 11:34:00,38.5,38.5,29.75,SSE,147,1.0,6.0,100,0.00,,---,0.03,VWS V14.01,2013-02-13 16:34:00,
2013-02-13 11:39:00,39.1,39.1,29.75,West,266,1.0,3.0,100,0.00,,---,0.03,VWS V14.01,2013-02-13 16:39:00,
2013-02-13 11:44:00,40.1,40.1,29.75,WNW,287,2.0,2.0,100,0.00,,---,0.03,VWS V14.01,2013-02-13 16:44:00,
2013-02-13 11:49:00,40.4,40.4,29.74,WSW,255,2.0,4.0,100,0.00,,---,0.03,VWS V14.01,2013-02-13 16:49:00,
2013-02-13 11:54:00,40.9,40.9,29.75,West,272,4.0,4.0,100,0.00,,---,0.03,VWS V14.01,2013-02-13 16:54:00,
2013-02-13 11:59:00,41.5,41.5,29.74,SW,232,7.0,11.0,100,0.00,,---,0.03,VWS V14.01,2013-02-13 16:59:00,
2013-02-13 12:04:00,41.2,41.2,29.73,West,268,9.0,9.0,100,0.00,,---,0.03,VWS V14.01,2013-02-13 17:04:00,
2013-02-13 12:09:00,41.0,41.0,29.72,SW,223,2.0,6.0,100,0.00,,---,0.03,VWS V14.01,2013-02-13 17:09:00,
2013-02-13 12:14:00,41.9,41.9,29.72,SW,231,1.0,1.0,100,0.00,,---,0.03,VWS V14.01,2013-02-13 17:14:00,
2013-02-13 12:19:00,41.8,41.8,29.72,WSW,243,1.0,1.0,100,0.00,,---,0.03,VWS V14.01,2013-02-13 17:19:00,
2013-02-13 12:24:00,42.2,42.2,29.71,NNW,345,1.0,3.0,100,0.00,,---,0.03,VWS V14.01,2013-02-13 17:24:00,
2013-02-13 12:29:00,42.5,42.5,29.71,West,266,2.0,2.0,100,0.00,,---,0.03,VWS V14.01,2013-02-13 17:29:00,
2013-02-13 12:34:00,42.9,42.9,29.72,SW,235,1.0,2.0,100,0.00,,---,0.03,VWS V14.01,2013-02-13 17:34:00,
2013-02-13 12:39:00,41.8,41.8,29.72,West,275,1.0,1.0,100,0.00,,---,0.03,VWS V14.01,2013-02-13 17:39:00,
2013-02-13 12:44:00,41.1,41.1,29.72,WSW,257,0.0,1.0,100,0.00,,---,0.03,VWS V14.01,2013-02-13 17:44:00,
2013-02-13 12:49:00,41.6,41.6,29.72,West,279,0.0,1.0,100,0.00,,---,0.03,VWS V14.01,2013-02-13 17:49:00,
2013-02-13 12:54:00,42.1,42.1,29.71,West,277,1.0,1.0,100,0.00,,---,0.03,VWS V14.01,2013-02-13 17:54:00,
2013-02-13 12:59:00,42.0,42.0,29.70,West,274,1.0,1.0,100,0.00,,---,0.03,VWS V14.01,2013-02-13 17:59:00,
2013-02-13 13:04:00,42.4,42.4,29.70,WNW,291,2.0,2.0,100,0.00,,---,0.03,VWS V14.01,2013-02-13 18:04:00,
2013-02-13 13:09:00,41.9,41.9,29.71,West,270,1.0,4.0,100,0.00,,---,0.03,VWS V14.01,2013-02-13 18:09:00,
2013-02-13 13:14:00,42.1,42.1,29.71,WNW,291,1.0,2.0,100,0.00,,---,0.03,VWS V14.01,2013-02-13 18:14:00,
2013-02-13 13:19:00,41.8,41.8,29.69,West,281,6.0,6.0,100,0.00,,---,0.03,VWS V14.01,2013-02-13 18:19:00,
2013-02-13 13:24:00,42.6,42.6,29.70,WSW,237,2.0,3.0,100,0.00,,---,0.03,VWS V14.01,2013-02-13 18:24:00,
2013-02-13 13:29:00,42.5,42.5,29.70,West,271,4.0,4.0,100,0.00,,---,0.03,VWS V14.01,2013-02-13 18:29:00,
2013-02-13 13:34:00,42.7,42.4,29.69,WNW,303,1.0,1.0,99,0.00,,---,0.03,VWS V14.01,2013-02-13 18:34:00,
2013-02-13 13:39:00,43.2,41.9,29.69,West,269,1.0,1.0,95,0.00,,---,0.03,VWS V14.01,2013-02-13 18:39:00,
2013-02-13 13:44:00,42.9,40.2,29.68,West,268,4.0,4.0,90,0.00,,---,0.03,VWS V14.01,2013-02-13 18:44:00,
2013-02-13 13:49:00,43.2,40.8,29.69,WNW,290,1.0,2.0,91,0.00,,---,0.03,VWS V14.01,2013-02-13 18:49:00,
2013-02-13 13:54:00,42.5,39.2,29.70,NW,307,1.0,2.0,88,0.00,,---,0.03,VWS V14.01,2013-02-13 18:54:00,
2013-02-13 13:59:00,41.7,37.8,29.69,West,272,4.0,4.0,86,0.00,,---,0.03,VWS V14.01,2013-02-13 18:59:00,
2013-02-13 14:04:00,41.8,38.8,29.68,SW,223,7.0,7.0,89,0.00,,---,0.03,VWS V14.01,2013-02-13 19:04:00,
2013-02-13 14:09:00,41.6,37.7,29.68,NNW,337,1.0,3.0,86,0.00,,---,0.03,VWS V14.01,2013-02-13 19:09:00,
2013-02-13 14:14:00,41.2,37.6,29.68,SW,220,6.0,7.0,87,0.00,,---,0.03,VWS V14.01,2013-02-13 19:14:00,
2013-02-13 14:19:00,41.4,38.4,29.69,West,281,4.0,4.0,89,0.00,,---,0.03,VWS V14.01,2013-02-13 19:19:00,
2013-02-13 14:24:00,41.3,38.6,29.70,SW,214,0.0,2.0,90,0.00,,---,0.03,VWS V14.01,2013-02-13 19:24:00,
2013-02-13 14:29:00,41.2,38.5,29.70,ENE,72,0.0,1.0,90,0.00,,---,0.03,VWS V14.01,2013-02-13 19:29:00,
2013-02-13 14:34:00,41.7,39.5,29.69,West,276,1.0,4.0,92,0.00,,---,0.03,VWS V14.01,2013-02-13 19:34:00,
2013-02-13 14:39:00,41.8,38.8,29.69,NW,318,8.0,9.0,89,0.00,,---,0.03,VWS V14.01,2013-02-13 19:39:00,
2013-02-13 14:44:00,43.1,40.1,29.68,SE,146,2.0,9.0,89,0.00,,---,0.03,VWS V14.01,2013-02-13 19:44:00,
2013-02-13 14:49:00,43.4,38.6,29.69,NNW,334,4.0,4.0,83,0.00,,---,0.03,VWS V14.01,2013-02-13 19:49:00,
2013-02-13 14:54:00,44.1,39.9,29.68,NW,326,1.0,4.0,85,0.00,,---,0.03,VWS V14.01,2013-02-13 19:54:00,
2013-02-13 14:59:00,44.3,39.8,29.68,WNW,293,2.0,2.0,84,0.00,,---,0.03,VWS V14.01,2013-02-13 19:59:00,
2013-02-13 15:04:00,44.7,39.9,29.68,West,274,6.0,11.0,83,0.00,,---,0.03,VWS V14.01,2013-02-13 20:04:00,
2013-02-13 15:09:00,44.7,39.9,29.68,NW,326,7.0,7.0,83,0.00,,---,0.03,VWS V14.01,2013-02-13 20:09:00,
2013-02-13 15:14:00,45.2,39.7,29.68,WNW,297,2.0,7.0,81,0.00,,---,0.03,VWS V14.01,2013-02-13 20:14:00,
2013-02-13 15:19:00,44.4,38.6,29.68,WSW,249,4.0,7.0,80,0.00,,---,0.03,VWS V14.01,2013-02-13 20:19:00,
2013-02-13 15:24:00,44.0,39.2,29.69,West,274,15.0,15.0,83,0.00,,---,0.03,VWS V14.01,2013-02-13 20:24:00,
2013-02-13 15:29:00,42.6,37.8,29.69,West,260,9.0,9.0,83,0.00,,---,0.03,VWS V14.01,2013-02-13 20:29:00,
2013-02-13 15:34:00,42.2,38.6,29.69,WSW,248,3.0,3.0,87,0.00,,---,0.03,VWS V14.01,2013-02-13 20:34:00,
2013-02-13 15:39:00,42.3,39.0,29.69,WNW,284,3.0,7.0,88,0.00,,---,0.03,VWS V14.01,2013-02-13 20:39:00,
2013-02-13 15:44:00,41.1,37.2,29.70,WNW,284,2.0,2.0,86,0.00,,---,0.03,VWS V14.01,2013-02-13 20:44:00,
2013-02-13 15:49:00,40.4,37.1,29.70,WSW,257,2.0,2.0,88,0.00,,---,0.03,VWS V14.01,2013-02-13 20:49:00,
2013-02-13 15:54:00,40.1,38.0,29.71,West,280,6.0,6.0,92,0.00,,---,0.03,VWS V14.01,2013-02-13 20:54:00,
2013-02-13 15:59:00,39.6,37.2,29.72,West,269,7.0,7.0,91,0.00,,---,0.03,VWS V14.01,2013-02-13 20:59:00,
2013-02-13 16:04:00,39.2,37.1,29.72,West,267,2.0,2.0,92,0.00,,---,0.03,VWS V14.01,2013-02-13 21:04:00,
2013-02-13 16:09:00,39.8,38.2,29.72,West,270,2.0,3.0,94,0.00,,---,0.03,VWS V14.01,2013-02-13 21:09:00,
2013-02-13 16:14:00,40.0,37.6,29.72,NW,322,0.0,1.0,91,0.00,,---,0.03,VWS V14.01,2013-02-13 21:14:00,
2013-02-13 16:19:00,39.9,37.2,29.72,WNW,296,2.0,4.0,90,0.00,,---,0.03,VWS V14.01,2013-02-13 21:19:00,
2013-02-13 16:24:00,39.4,37.3,29.72,SW,219,5.0,5.0,92,0.00,,---,0.03,VWS V14.01,2013-02-13 21:24:00,
2013-02-13 16:29:00,38.8,36.7,29.72,NNW,327,1.0,1.0,92,0.00,,---,0.03,VWS V14.01,2013-02-13 21:29:00,
2013-02-13 16:34:00,38.4,36.8,29.72,WNW,285,1.0,3.0,94,0.00,,---,0.03,VWS V14.01,2013-02-13 21:34:00,
2013-02-13 16:39:00,38.0,36.7,29.72,West,265,0.0,1.0,95,0.01,,---,0.04,VWS V14.01,2013-02-13 21:39:00,
2013-02-13 16:44:00,38.0,37.0,29.72,West,270,4.0,4.0,96,0.01,,---,0.04,VWS V14.01,2013-02-13 21:44:00,
2013-02-13 16:49:00,37.5,36.2,29.72,SW,218,5.0,5.0,95,0.01,,---,0.04,VWS V14.01,2013-02-13 21:49:00,
2013-02-13 16:54:00,37.2,36.2,29.72,NNW,335,5.0,9.0,96,0.01,,---,0.04,VWS V14.01,2013-02-13 21:54:00,
2013-02-13 16:59:00,37.1,36.1,29.72,West,271,3.0,5.0,96,0.01,,---,0.04,VWS V14.01,2013-02-13 21:59:00,
2013-02-13 17:04:00,36.8,35.8,29.73,West,280,1.0,3.0,96,0.01,,---,0.04,VWS V14.01,2013-02-13 22:04:00,
2013-02-13 17:09:00,37.0,36.2,29.73,NNW,332,3.0,12.0,97,0.01,,---,0.04,VWS V14.01,2013-02-13 22:09:00,
2013-02-13 17:14:00,36.5,35.5,29.73,West,266,1.0,8.0,96,0.01,,---,0.04,VWS V14.01,2013-02-13 22:14:00,
2013-02-13 17:19:00,36.4,35.4,29.73,NNE,30,2.0,3.0,96,0.01,,---,0.04,VWS V14.01,2013-02-13 22:19:00,
2013-02-13 17:24:00,36.4,35.4,29.74,SW,228,1.0,2.0,96,0.01,,---,0.04,VWS V14.01,2013-02-13 22:24:00,
2013-02-13 17:29:00,36.1,35.1,29.74,WNW,290,3.0,3.0,96,0.01,,---,0.04,VWS V14.01,2013-02-13 22:29:00,
2013-02-13 17:34:00,35.6,34.6,29.75,WSW,255,6.0,8.0,96,0.01,,---,0.04,VWS V14.01,2013-02-13 22:34:00,
2013-02-13 17:39:00,35.4,34.4,29.75,North,357,2.0,9.0,96,0.00,,---,0.04,VWS V14.01,2013-02-13 22:39:00,
2013-02-13 17:44:00,34.9,33.6,29.75,SSW,210,4.0,10.0,95,0.00,,---,0.04,VWS V14.01,2013-02-13 22:44:00,
2013-02-13 17:49:00,34.6,33.3,29.76,West,267,2.0,9.0,95,0.00,,---,0.04,VWS V14.01,2013-02-13 22:49:00,
2013-02-13 17:54:00,34.4,33.1,29.76,WSW,241,7.0,7.0,95,0.00,,---,0.04,VWS V14.01,2013-02-13 22:54:00,
2013-02-13 17:59:00,34.0,32.5,29.76,North,10,2.0,10.0,94,0.00,,---,0.04,VWS V14.01,2013-02-13 22:59:00,
2013-02-13 18:04:00,33.8,32.3,29.77,WNW,303,2.0,3.0,94,0.00,,---,0.04,VWS V14.01,2013-02-13 23:04:00,
2013-02-13 18:09:00,33.5,32.0,29.77,North,7,3.0,7.0,94,0.00,,---,0.04,VWS V14.01,2013-02-13 23:09:00,
2013-02-13 18:14:00,33.3,31.8,29.78,WSW,242,7.0,7.0,94,0.00,,---,0.04,VWS V14.01,2013-02-13 23:14:00,
2013-02-13 18:19:00,33.0,31.5,29.78,WSW,238,3.0,6.0,94,0.00,,---,0.04,VWS V14.01,2013-02-13 23:19:00,
2013-02-13 18:24:00,32.8,31.3,29.79,North,353,2.0,6.0,94,0.00,,---,0.04,VWS V14.01,2013-02-13 23:24:00,
2013-02-13 18:29:00,32.6,31.3,29.79,NW,314,5.0,8.0,95,0.00,,---,0.04,VWS V14.01,2013-02-13 23:29:00,
2013-02-13 18:34:00,32.6,31.3,29.79,NW,316,2.0,7.0,95,0.00,,---,0.04,VWS V14.01,2013-02-13 23:34:00,
2013-02-13 18:39:00,32.5,31.2,29.79,NNW,337,6.0,7.0,95,0.00,,---,0.04,VWS V14.01,2013-02-13 23:39:00,
2013-02-13 18:44:00,32.4,31.1,29.80,WNW,302,3.0,7.0,95,0.00,,---,0.04,VWS V14.01,2013-02-13 23:44:00,
2013-02-13 18:49:00,32.4,31.4,29.80,WSW,253,7.0,7.0,96,0.00,,---,0.04,VWS V14.01,2013-02-13 23:49:00,
2013-02-13 18:54:00,32.3,31.3,29.81,WNW,287,4.0,11.0,96,0.00,,---,0.04,VWS V14.01,2013-02-13 23:54:00,
2013-02-13 18:59:00,32.1,31.1,29.80,West,259,4.0,7.0,96,0.00,,---,0.04,VWS V14.01,2013-02-13 23:59:00,
2013-02-13 19:04:00,32.0,31.0,29.81,NNW,348,5.0,8.0,96,0.00,,---,0.04,VWS V14.01,2013-02-14 00:04:00,
2013-02-13 19:09:00,31.9,30.6,29.81,North,3,4.0,9.0,95,0.00,,---,0.04,VWS V14.01,2013-02-14 00:09:00,
2013-02-13 19:14:00,31.8,30.5,29.80,WNW,302,6.0,11.0,95,0.00,,---,0.04,VWS V14.01,2013-02-14 00:14:00,
2013-02-13 19:19:00,31.7,30.4,29.80,SSW,197,3.0,11.0,95,0.00,,---,0.04,VWS V14.01,2013-02-14 00:19:00,
2013-02-13 19:24:00,31.5,30.0,29.80,SW,224,5.0,9.0,94,0.00,,---,0.04,VWS V14.01,2013-02-14 00:24:00,
2013-02-13 19:29:00,31.2,29.7,29.81,West,275,9.0,10.0,94,0.00,,---,0.04,VWS V14.01,2013-02-14 00:29:00,
2013-02-13 19:34:00,31.1,29.8,29.81,NNW,338,8.0,10.0,95,0.00,,---,0.04,VWS V14.01,2013-02-14 00:34:00,
2013-02-13 19:39:00,31.0,29.7,29.82,West,279,1.0,5.0,95,0.00,,---,0.04,VWS V14.01,2013-02-14 00:39:00,
2013-02-13 19:44:00,31.0,29.7,29.81,WSW,251,5.0,9.0,95,0.00,,---,0.04,VWS V14.01,2013-02-14 00:44:00,
2013-02-13 19:49:00,31.0,29.7,29.81,WNW,299,5.0,10.0,95,0.00,,---,0.04,VWS V14.01,2013-02-14 00:49:00,
2013-02-13 19:54:00,30.9,29.6,29.81,WSW,248,7.0,7.0,95,0.00,,---,0.04,VWS V14.01,2013-02-14 00:54:00,
2013-02-13 19:59:00,30.7,29.4,29.82,NE,56,4.0,9.0,95,0.00,,---,0.04,VWS V14.01,2013-02-14 00:59:00,
2013-02-13 20:04:00,30.7,29.4,29.82,WSW,249,4.0,5.0,95,0.00,,---,0.04,VWS V14.01,2013-02-14 01:04:00,
2013-02-13 20:09:00,30.6,29.3,29.82,NW,313,5.0,15.0,95,0.00,,---,0.04,VWS V14.01,2013-02-14 01:09:00,
2013-02-13 20:14:00,30.3,29.0,29.81,WSW,257,5.0,9.0,95,0.00,,---,0.04,VWS V14.01,2013-02-14 01:14:00,
2013-02-13 20:19:00,30.2,28.9,29.81,SSW,212,7.0,10.0,95,0.00,,---,0.04,VWS V14.01,2013-02-14 01:19:00,
2013-02-13 20:24:00,30.0,28.7,29.81,WSW,245,8.0,10.0,95,0.00,,---,0.04,VWS V14.01,2013-02-14 01:24:00,
2013-02-13 20:29:00,29.9,28.6,29.82,North,9,3.0,8.0,95,0.00,,---,0.04,VWS V14.01,2013-02-14 01:29:00,
2013-02-13 20:34:00,29.9,28.6,29.82,WSW,244,3.0,11.0,95,0.00,,---,0.04,VWS V14.01,2013-02-14 01:34:00,
2013-02-13 20:39:00,29.9,28.4,29.83,NNE,15,3.0,8.0,94,0.00,,---,0.04,VWS V14.01,2013-02-14 01:39:00,
2013-02-13 20:44:00,29.8,28.3,29.84,WNW,291,5.0,9.0,94,0.00,,---,0.04,VWS V14.01,2013-02-14 01:44:00,
2013-02-13 20:49:00,29.8,28.3,29.84,ENE,75,3.0,5.0,94,0.00,,---,0.04,VWS V14.01,2013-02-14 01:49:00,
2013-02-13 20:54:00,29.8,28.3,29.84,North,6,3.0,6.0,94,0.00,,---,0.04,VWS V14.01,2013-02-14 01:54:00,
2013-02-13 20:59:00,29.8,28.3,29.84,West,264,4.0,13.0,94,0.00,,---,0.04,VWS V14.01,2013-02-14 01:59:00,
2013-02-13 21:04:00,29.6,28.1,29.83,West,278,4.0,10.0,94,0.00,,---,0.04,VWS V14.01,2013-02-14 02:04:00,
2013-02-13 21:09:00,29.5,28.0,29.84,WNW,295,6.0,6.0,94,0.00,,---,0.04,VWS V14.01,2013-02-14 02:09:00,
2013-02-13 21:14:00,29.5,28.0,29.84,WSW,238,7.0,8.0,94,0.00,,---,0.04,VWS V14.01,2013-02-14 02:14:00,
2013-02-13 21:19:00,29.3,27.8,29.85,East,96,1.0,5.0,94,0.00,,---,0.04,VWS V14.01,2013-02-14 02:19:00,
2013-02-13 21:24:00,29.3,28.0,29.85,West,264,3.0,5.0,95,0.00,,---,0.04,VWS V14.01,2013-02-14 02:24:00,
2013-02-13 21:29:00,29.2,27.7,29.85,NNE,25,2.0,7.0,94,0.00,,---,0.04,VWS V14.01,2013-02-14 02:29:00,
2013-02-13 21:34:00,29.1,27.6,29.85,WNW,299,4.0,4.0,94,0.00,,---,0.04,VWS V14.01,2013-02-14 02:34:00,
2013-02-13 21:39:00,28.9,27.6,29.85,West,264,7.0,7.0,95,0.00,,---,0.04,VWS V14.01,2013-02-14 02:39:00,
2013-02-13 21:44:00,28.8,27.5,29.86,SW,216,2.0,6.0,95,0.00,,---,0.04,VWS V14.01,2013-02-14 02:44:00,
2013-02-13 21:49:00,28.8,27.3,29.86,SSW,200,4.0,8.0,94,0.00,,---,0.04,VWS V14.01,2013-02-14 02:49:00,
2013-02-13 21:54:00,28.7,27.2,29.86,NNW,328,3.0,3.0,94,0.00,,---,0.04,VWS V14.01,2013-02-14 02:54:00,
2013-02-13 21:59:00,28.8,27.3,29.86,WSW,243,4.0,11.0,94,0.00,,---,0.04,VWS V14.01,2013-02-14 02:59:00,
2013-02-13 22:04:00,28.8,27.3,29.86,NW,317,2.0,7.0,94,0.00,,---,0.04,VWS V14.01,2013-02-14 03:04:00,
2013-02-13 22:09:00,28.7,27.2,29.87,WSW,246,4.0,6.0,94,0.00,,---,0.04,VWS V14.01,2013-02-14 03:09:00,
2013-02-13 22:14:00,28.5,27.0,29.87,NNW,341,3.0,6.0,94,0.00,,---,0.04,VWS V14.01,2013-02-14 03:14:00,
2013-02-13 22:19:00,28.4,26.9,29.87,WNW,284,4.0,5.0,94,0.00,,---,0.04,VWS V14.01,2013-02-14 03:19:00,
2013-02-13 22:24:00,28.5,27.0,29.87,WSW,245,3.0,7.0,94,0.00,,---,0.04,VWS V14.01,2013-02-14 03:24:00,
2013-02-13 22:29:00,28.4,26.9,29.88,WNW,289,3.0,4.0,94,0.00,,---,0.04,VWS V14.01,2013-02-14 03:29:00,
2013-02-13 22:34:00,28.2,26.7,29.88,NNW,328,5.0,6.0,94,0.00,,---,0.04,VWS V14.01,2013-02-14 03:34:00,
2013-02-13 22:39:00,28.2,27.0,29.88,NNW,335,5.0,8.0,95,0.00,,---,0.04,VWS V14.01,2013-02-14 03:39:00,
2013-02-13 22:44:00,28.2,27.0,29.88,SW,235,4.0,4.0,95,0.00,,---,0.04,VWS V14.01,2013-02-14 03:44:00,
2013-02-13 22:49:00,28.1,26.9,29.89,NW,309,5.0,5.0,95,0.00,,---,0.04,VWS V14.01,2013-02-14 03:49:00,
2013-02-13 22:54:00,28.0,26.8,29.89,WSW,247,3.0,6.0,95,0.00,,---,0.04,VWS V14.01,2013-02-14 03:54:00,
2013-02-13 22:59:00,28.1,26.9,29.89,WSW,255,3.0,10.0,95,0.00,,---,0.04,VWS V14.01,2013-02-14 03:59:00,
2013-02-13 23:04:00,28.0,26.8,29.89,NW,306,5.0,9.0,95,0.00,,---,0.04,VWS V14.01,2013-02-14 04:04:00,
2013-02-13 23:09:00,27.9,26.7,29.89,WSW,244,7.0,9.0,95,0.00,,---,0.04,VWS V14.01,2013-02-14 04:09:00,
2013-02-13 23:14:00,27.9,26.7,29.89,West,278,3.0,7.0,95,0.00,,---,0.04,VWS V14.01,2013-02-14 04:14:00,
2013-02-13 23:19:00,27.8,26.6,29.89,NW,311,8.0,9.0,95,0.00,,---,0.04,VWS V14.01,2013-02-14 04:19:00,
2013-02-13 23:24:00,27.8,26.6,29.88,NW,309,5.0,9.0,95,0.00,,---,0.04,VWS V14.01,2013-02-14 04:24:00,
2013-02-13 23:29:00,27.7,26.5,29.88,NW,319,6.0,12.0,95,0.00,,---,0.04,VWS V14.01,2013-02-14 04:29:00,
2013-02-13 23:34:00,27.8,26.6,29.88,WNW,291,9.0,12.0,95,0.00,,---,0.04,VWS V14.01,2013-02-14 04:34:00,
2013-02-13 23:39:00,27.8,26.6,29.89,NNW,331,8.0,10.0,95,0.00,,---,0.04,VWS V14.01,2013-02-14 04:39:00,
2013-02-13 23:44:00,27.6,26.4,29.89,WNW,296,4.0,9.0,95,0.00,,---,0.04,VWS V14.01,2013-02-14 04:44:00,
2013-02-13 23:49:00,27.5,26.3,29.89,NNW,338,4.0,10.0,95,0.00,,---,0.04,VWS V14.01,2013-02-14 04:49:00,
2013-02-13 23:54:00,27.4,26.2,29.89,WSW,258,3.0,9.0,95,0.00,,---,0.04,VWS V14.01,2013-02-14 04:54:00,
2013-02-13 23:59:00,27.4,26.2,29.90,NNW,330,3.0,10.0,95,0.00,,---,0.04,VWS V14.01,2013-02-14 04:59:00,